Aeroporto :
LOGIN :

Iscrizione | Disclaimer

   EN    FR    IT 

 










Sommario :    VFR   VFR Marginale   IFR   IFR Intensivo   IFR Molto Intensivo
Visibilità : 
Base nubi : 
>= 8 km
>= 3000ft
5 / 8 km
1000 / 3000 ft
1500m / 5 km
500 / 1000 ft
800 / 1500m
200 / 500 ft
< 800m
< 200 ft
Simboli :   Temporali  Nebbia  Neve Forte  Precipitazioni Forti  Vento > 20 kt
SIGMETs :   Varie  Temporali  Ghiacco  Turbolenza  Onda orograficha  Ceneri Vulcaniche






- Altitudine del aeroporto : 1455 ft


ETIH - Hohenfels Army Air Field

ULTIMO METAR :
  • 150556Z AUTO 17004KT 9999 SCT039 BKN060 05/04 A2963 RMK AO2 RAE03 SLP046 P0000 60011 T00530043 10055 20034 57014 $

METARs OBSOLETI :
  • 150528Z AUTO 00000KT 9999 SCT006 OVC038 05/04 A2963 RMK AO2 RAE03 SLP048 $
  • 150503Z AUTO 00000KT 9999 BKN007 OVC030 05/04 A2964 RMK AO2 RAE03 CIG 007V030 SLP051 $
  • 150456Z AUTO 00000KT 9999 -RA FEW008 OVC030 05/04 A2964 RMK AO2 SLP051 P0004 T00450036 $
  • 150431Z AUTO 11004KT 9999 -RA BKN032 OVC038 04/03 A2964 RMK AO2 SLP051 $
  • 150426Z AUTO 12003KT 9999 RA BKN029 OVC038 04/03 A2964 RMK AO2 CIG 029V040 SLP051 $
  • 150356Z AUTO 09003KT 9999 -RA FEW030 OVC041 04/03 A2965 RMK AO2 SLP055 P0004 T00380028
  • 150301Z AUTO 00000KT 9999 -RA BKN030 04/02 A2968 RMK AO2 SLP065 $

Previsioni scadute.



MetMap, La meteo Aeronautica in un colpo d'occhio ! - Copyright ORBIFLY Dicembre 2007 - Disclaimer

ORBIFLY MET'MAP TEAM :

Programmazione e sviluppo : Alexandra Zaïnal
Concezione : Baudouin d'Aumeries
Aiuto per la programmazione : Marc-Olivier Méhu
Supporto tecnico e logistico : Manuel Goepfert
Aiuto per la traduzione : Arnaldo La Scala

Contatto : metmap@orbifly.com




FONTI E CREDITI :

   NOAA